sensor_id;sensor_type;location;lat;lon;timestamp;temperature;humidity
21861;DHT22;11095;48.066;8.540;2023-01-19T00:00:17;-6.40;99.90
21861;DHT22;11095;48.066;8.540;2023-01-19T00:02:43;-6.40;99.90
21861;DHT22;11095;48.066;8.540;2023-01-19T00:05:12;-6.40;99.90
21861;DHT22;11095;48.066;8.540;2023-01-19T00:07:38;-6.40;99.90
21861;DHT22;11095;48.066;8.540;2023-01-19T00:10:04;-6.50;99.90
21861;DHT22;11095;48.066;8.540;2023-01-19T00:12:38;-6.50;99.90
21861;DHT22;11095;48.066;8.540;2023-01-19T00:15:04;-6.50;99.90
21861;DHT22;11095;48.066;8.540;2023-01-19T00:17:30;-6.60;99.90
21861;DHT22;11095;48.066;8.540;2023-01-19T00:19:55;-6.60;99.90
21861;DHT22;11095;48.066;8.540;2023-01-19T00:22:21;-6.60;99.90
21861;DHT22;11095;48.066;8.540;2023-01-19T00:24:47;-6.60;99.90
21861;DHT22;11095;48.066;8.540;2023-01-19T00:27:13;-6.60;99.90
21861;DHT22;11095;48.066;8.540;2023-01-19T00:29:41;-6.60;99.90
21861;DHT22;11095;48.066;8.540;2023-01-19T00:32:06;-6.60;99.90
21861;DHT22;11095;48.066;8.540;2023-01-19T00:34:32;-6.60;99.90
21861;DHT22;11095;48.066;8.540;2023-01-19T00:37:14;-6.60;99.90
21861;DHT22;11095;48.066;8.540;2023-01-19T00:39:41;-6.60;99.90
21861;DHT22;11095;48.066;8.540;2023-01-19T00:42:10;-6.60;99.90
21861;DHT22;11095;48.066;8.540;2023-01-19T00:44:54;-6.60;99.90
21861;DHT22;11095;48.066;8.540;2023-01-19T00:47:20;-6.70;99.90
21861;DHT22;11095;48.066;8.540;2023-01-19T00:49:46;-6.70;99.90
21861;DHT22;11095;48.066;8.540;2023-01-19T00:52:11;-6.80;99.90
21861;DHT22;11095;48.066;8.540;2023-01-19T00:54:37;-6.80;99.90
21861;DHT22;11095;48.066;8.540;2023-01-19T00:57:02;-6.80;99.90
21861;DHT22;11095;48.066;8.540;2023-01-19T00:59:28;-6.80;99.90
21861;DHT22;11095;48.066;8.540;2023-01-19T01:01:54;-6.90;99.90
21861;DHT22;11095;48.066;8.540;2023-01-19T01:04:20;-6.80;99.90
21861;DHT22;11095;48.066;8.540;2023-01-19T01:06:46;-6.90;99.90
21861;DHT22;11095;48.066;8.540;2023-01-19T01:09:11;-6.90;99.90
21861;DHT22;11095;48.066;8.540;2023-01-19T01:11:41;-6.90;99.90
21861;DHT22;11095;48.066;8.540;2023-01-19T01:14:11;-6.90;99.90
21861;DHT22;11095;48.066;8.540;2023-01-19T01:16:37;-6.90;99.90
21861;DHT22;11095;48.066;8.540;2023-01-19T01:19:03;-6.90;99.90
21861;DHT22;11095;48.066;8.540;2023-01-19T01:21:28;-6.90;99.90
21861;DHT22;11095;48.066;8.540;2023-01-19T01:23:54;-6.90;99.90
21861;DHT22;11095;48.066;8.540;2023-01-19T01:26:20;-6.90;99.90
21861;DHT22;11095;48.066;8.540;2023-01-19T01:28:46;-6.90;99.90
21861;DHT22;11095;48.066;8.540;2023-01-19T01:31:11;-7.00;99.90
21861;DHT22;11095;48.066;8.540;2023-01-19T01:33:37;-7.00;99.90
21861;DHT22;11095;48.066;8.540;2023-01-19T01:36:03;-7.00;99.90
21861;DHT22;11095;48.066;8.540;2023-01-19T01:38:29;-7.00;99.90
21861;DHT22;11095;48.066;8.540;2023-01-19T01:40:54;-7.00;99.90
21861;DHT22;11095;48.066;8.540;2023-01-19T01:43:20;-7.00;99.90
21861;DHT22;11095;48.066;8.540;2023-01-19T01:45:46;-7.00;99.90
21861;DHT22;11095;48.066;8.540;2023-01-19T01:48:27;-7.00;99.90
21861;DHT22;11095;48.066;8.540;2023-01-19T01:51:05;-7.00;99.90
21861;DHT22;11095;48.066;8.540;2023-01-19T01:56:25;-7.10;99.90
21861;DHT22;11095;48.066;8.540;2023-01-19T01:58:55;-7.10;99.90
21861;DHT22;11095;48.066;8.540;2023-01-19T02:01:21;-7.10;99.90
21861;DHT22;11095;48.066;8.540;2023-01-19T02:04:05;-7.10;99.90
21861;DHT22;11095;48.066;8.540;2023-01-19T02:06:31;-7.20;99.90
21861;DHT22;11095;48.066;8.540;2023-01-19T02:09:02;-7.20;99.90
21861;DHT22;11095;48.066;8.540;2023-01-19T02:11:49;-7.20;99.90
21861;DHT22;11095;48.066;8.540;2023-01-19T02:14:35;-7.20;99.90
21861;DHT22;11095;48.066;8.540;2023-01-19T02:17:03;-7.20;99.90
21861;DHT22;11095;48.066;8.540;2023-01-19T02:19:36;-7.20;99.90
21861;DHT22;11095;48.066;8.540;2023-01-19T02:22:15;-7.30;99.90
21861;DHT22;11095;48.066;8.540;2023-01-19T02:24:43;-7.30;99.90
21861;DHT22;11095;48.066;8.540;2023-01-19T02:27:10;-7.20;99.90
21861;DHT22;11095;48.066;8.540;2023-01-19T02:29:36;-7.30;99.90
21861;DHT22;11095;48.066;8.540;2023-01-19T02:32:03;-7.30;99.90
21861;DHT22;11095;48.066;8.540;2023-01-19T02:34:30;-7.30;99.90
21861;DHT22;11095;48.066;8.540;2023-01-19T02:36:59;-7.30;99.90
21861;DHT22;11095;48.066;8.540;2023-01-19T02:42:07;-7.30;99.90
21861;DHT22;11095;48.066;8.540;2023-01-19T02:44:35;-7.30;99.90
21861;DHT22;11095;48.066;8.540;2023-01-19T02:47:02;-7.30;99.90
21861;DHT22;11095;48.066;8.540;2023-01-19T02:49:28;-7.30;99.90
21861;DHT22;11095;48.066;8.540;2023-01-19T02:51:56;-7.30;99.90
21861;DHT22;11095;48.066;8.540;2023-01-19T03:02:30;-7.40;99.90
21861;DHT22;11095;48.066;8.540;2023-01-19T03:05:20;-7.40;99.90
21861;DHT22;11095;48.066;8.540;2023-01-19T03:08:21;-7.40;99.90
21861;DHT22;11095;48.066;8.540;2023-01-19T03:10:57;-7.50;99.90
21861;DHT22;11095;48.066;8.540;2023-01-19T03:16:17;-7.60;99.90
21861;DHT22;11095;48.066;8.540;2023-01-19T03:18:55;-7.60;99.90
21861;DHT22;11095;48.066;8.540;2023-01-19T03:21:25;-7.60;99.90
21861;DHT22;11095;48.066;8.540;2023-01-19T03:23:53;-7.60;99.90
21861;DHT22;11095;48.066;8.540;2023-01-19T03:26:24;-7.70;99.90
21861;DHT22;11095;48.066;8.540;2023-01-19T03:28:51;-7.70;99.90
21861;DHT22;11095;48.066;8.540;2023-01-19T03:31:21;-7.70;99.90
21861;DHT22;11095;48.066;8.540;2023-01-19T03:33:55;-7.70;99.90
21861;DHT22;11095;48.066;8.540;2023-01-19T03:36:48;-7.70;99.90
21861;DHT22;11095;48.066;8.540;2023-01-19T03:39:22;-7.70;99.90
21861;DHT22;11095;48.066;8.540;2023-01-19T03:41:56;-7.80;99.90
21861;DHT22;11095;48.066;8.540;2023-01-19T03:44:24;-7.80;99.90
21861;DHT22;11095;48.066;8.540;2023-01-19T03:46:51;-7.80;99.90
21861;DHT22;11095;48.066;8.540;2023-01-19T03:49:17;-7.80;99.90
21861;DHT22;11095;48.066;8.540;2023-01-19T03:51:43;-7.80;99.90
21861;DHT22;11095;48.066;8.540;2023-01-19T03:54:10;-7.90;99.90
21861;DHT22;11095;48.066;8.540;2023-01-19T03:56:35;-7.90;99.90
21861;DHT22;11095;48.066;8.540;2023-01-19T03:59:01;-7.80;99.90
21861;DHT22;11095;48.066;8.540;2023-01-19T04:01:29;-7.80;99.90
21861;DHT22;11095;48.066;8.540;2023-01-19T04:03:55;-7.80;99.90
21861;DHT22;11095;48.066;8.540;2023-01-19T04:06:21;-7.80;99.90
21861;DHT22;11095;48.066;8.540;2023-01-19T04:08:47;-7.80;99.90
21861;DHT22;11095;48.066;8.540;2023-01-19T04:11:13;-7.80;99.90
21861;DHT22;11095;48.066;8.540;2023-01-19T04:13:39;-7.80;99.90
21861;DHT22;11095;48.066;8.540;2023-01-19T04:16:05;-7.80;99.90
21861;DHT22;11095;48.066;8.540;2023-01-19T04:18:32;-7.80;99.90
21861;DHT22;11095;48.066;8.540;2023-01-19T04:20:59;-7.80;99.90
21861;DHT22;11095;48.066;8.540;2023-01-19T04:23:26;-7.90;99.90
21861;DHT22;11095;48.066;8.540;2023-01-19T04:26:04;-7.90;99.90
21861;DHT22;11095;48.066;8.540;2023-01-19T04:28:31;-7.90;99.90
21861;DHT22;11095;48.066;8.540;2023-01-19T04:30:57;-7.90;99.90
21861;DHT22;11095;48.066;8.540;2023-01-19T04:33:23;-8.00;99.90
21861;DHT22;11095;48.066;8.540;2023-01-19T04:35:50;-7.90;99.90
21861;DHT22;11095;48.066;8.540;2023-01-19T04:38:17;-7.90;99.90
21861;DHT22;11095;48.066;8.540;2023-01-19T04:40:44;-8.00;99.90
21861;DHT22;11095;48.066;8.540;2023-01-19T04:43:09;-8.00;99.90
21861;DHT22;11095;48.066;8.540;2023-01-19T04:45:35;-8.00;99.90
21861;DHT22;11095;48.066;8.540;2023-01-19T04:48:01;-8.00;99.90
21861;DHT22;11095;48.066;8.540;2023-01-19T04:50:29;-8.00;99.90
21861;DHT22;11095;48.066;8.540;2023-01-19T04:52:55;-8.00;99.90
21861;DHT22;11095;48.066;8.540;2023-01-19T04:55:21;-8.00;99.90
21861;DHT22;11095;48.066;8.540;2023-01-19T04:57:47;-8.00;99.90
21861;DHT22;11095;48.066;8.540;2023-01-19T05:00:13;-8.10;99.90
21861;DHT22;11095;48.066;8.540;2023-01-19T05:02:38;-8.10;99.90
21861;DHT22;11095;48.066;8.540;2023-01-19T05:05:06;-8.10;99.90
21861;DHT22;11095;48.066;8.540;2023-01-19T05:07:32;-8.10;99.90
21861;DHT22;11095;48.066;8.540;2023-01-19T05:09:58;-8.10;99.90
21861;DHT22;11095;48.066;8.540;2023-01-19T05:12:24;-8.10;99.90
21861;DHT22;11095;48.066;8.540;2023-01-19T05:14:50;-8.10;99.90
21861;DHT22;11095;48.066;8.540;2023-01-19T05:17:16;-8.20;99.90
21861;DHT22;11095;48.066;8.540;2023-01-19T05:19:42;-8.20;99.90
21861;DHT22;11095;48.066;8.540;2023-01-19T05:22:10;-8.20;99.90
21861;DHT22;11095;48.066;8.540;2023-01-19T05:24:36;-8.30;99.90
21861;DHT22;11095;48.066;8.540;2023-01-19T05:27:02;-8.20;99.90
21861;DHT22;11095;48.066;8.540;2023-01-19T05:29:27;-8.20;99.90
21861;DHT22;11095;48.066;8.540;2023-01-19T05:31:53;-8.30;99.90
21861;DHT22;11095;48.066;8.540;2023-01-19T05:34:18;-8.30;99.90
21861;DHT22;11095;48.066;8.540;2023-01-19T05:36:44;-8.20;99.90
21861;DHT22;11095;48.066;8.540;2023-01-19T05:39:10;-8.20;99.90
21861;DHT22;11095;48.066;8.540;2023-01-19T05:41:35;-8.20;99.90
21861;DHT22;11095;48.066;8.540;2023-01-19T05:44:01;-8.20;99.90
21861;DHT22;11095;48.066;8.540;2023-01-19T05:46:27;-8.20;99.90
21861;DHT22;11095;48.066;8.540;2023-01-19T05:48:52;-8.20;99.90
21861;DHT22;11095;48.066;8.540;2023-01-19T05:51:18;-8.30;99.90
21861;DHT22;11095;48.066;8.540;2023-01-19T05:53:44;-8.30;99.90
21861;DHT22;11095;48.066;8.540;2023-01-19T05:56:10;-8.20;99.90
21861;DHT22;11095;48.066;8.540;2023-01-19T05:58:38;-8.20;99.90
21861;DHT22;11095;48.066;8.540;2023-01-19T06:01:06;-8.20;99.90
21861;DHT22;11095;48.066;8.540;2023-01-19T06:03:33;-8.20;99.90
21861;DHT22;11095;48.066;8.540;2023-01-19T06:06:00;-8.20;99.90
21861;DHT22;11095;48.066;8.540;2023-01-19T06:08:26;-8.20;99.90
21861;DHT22;11095;48.066;8.540;2023-01-19T06:10:52;-8.20;99.90
21861;DHT22;11095;48.066;8.540;2023-01-19T06:13:17;-8.20;99.90
21861;DHT22;11095;48.066;8.540;2023-01-19T06:15:43;-8.20;99.90
21861;DHT22;11095;48.066;8.540;2023-01-19T06:18:09;-8.30;99.90
21861;DHT22;11095;48.066;8.540;2023-01-19T06:20:36;-8.20;99.90
21861;DHT22;11095;48.066;8.540;2023-01-19T06:23:01;-8.30;99.90
21861;DHT22;11095;48.066;8.540;2023-01-19T06:25:27;-8.30;99.90
21861;DHT22;11095;48.066;8.540;2023-01-19T06:27:53;-8.30;99.90
21861;DHT22;11095;48.066;8.540;2023-01-19T06:30:19;-8.30;99.90
21861;DHT22;11095;48.066;8.540;2023-01-19T06:32:45;-8.40;99.90
21861;DHT22;11095;48.066;8.540;2023-01-19T06:35:12;-8.30;99.90
21861;DHT22;11095;48.066;8.540;2023-01-19T06:37:38;-8.30;99.90
21861;DHT22;11095;48.066;8.540;2023-01-19T06:40:04;-8.40;99.90
21861;DHT22;11095;48.066;8.540;2023-01-19T06:42:30;-8.40;99.90
21861;DHT22;11095;48.066;8.540;2023-01-19T06:44:55;-8.30;99.90
21861;DHT22;11095;48.066;8.540;2023-01-19T06:47:22;-8.30;99.90
21861;DHT22;11095;48.066;8.540;2023-01-19T06:49:47;-8.40;99.90
21861;DHT22;11095;48.066;8.540;2023-01-19T06:52:13;-8.40;99.90
21861;DHT22;11095;48.066;8.540;2023-01-19T06:54:41;-8.40;99.90
21861;DHT22;11095;48.066;8.540;2023-01-19T06:57:08;-8.30;99.90
21861;DHT22;11095;48.066;8.540;2023-01-19T06:59:33;-8.40;99.90
21861;DHT22;11095;48.066;8.540;2023-01-19T07:01:59;-8.30;99.90
21861;DHT22;11095;48.066;8.540;2023-01-19T07:04:25;-8.40;99.90
21861;DHT22;11095;48.066;8.540;2023-01-19T07:06:51;-8.40;99.90
21861;DHT22;11095;48.066;8.540;2023-01-19T07:09:17;-8.30;99.90
21861;DHT22;11095;48.066;8.540;2023-01-19T07:11:45;-8.30;99.90
21861;DHT22;11095;48.066;8.540;2023-01-19T07:14:10;-8.40;99.90
21861;DHT22;11095;48.066;8.540;2023-01-19T07:16:36;-8.30;99.90
21861;DHT22;11095;48.066;8.540;2023-01-19T07:19:02;-8.30;99.90
21861;DHT22;11095;48.066;8.540;2023-01-19T07:21:28;-8.30;99.90
21861;DHT22;11095;48.066;8.540;2023-01-19T07:23:54;-8.20;99.90
21861;DHT22;11095;48.066;8.540;2023-01-19T07:26:20;-8.20;99.90
21861;DHT22;11095;48.066;8.540;2023-01-19T07:28:49;-8.10;99.90
21861;DHT22;11095;48.066;8.540;2023-01-19T07:31:15;-8.10;99.90
21861;DHT22;11095;48.066;8.540;2023-01-19T07:33:42;-8.00;99.90
21861;DHT22;11095;48.066;8.540;2023-01-19T07:36:08;-7.90;99.90
21861;DHT22;11095;48.066;8.540;2023-01-19T07:38:33;-7.70;99.90
21861;DHT22;11095;48.066;8.540;2023-01-19T07:41:00;-7.30;99.90
21861;DHT22;11095;48.066;8.540;2023-01-19T07:43:26;-6.70;99.90
21861;DHT22;11095;48.066;8.540;2023-01-19T07:45:54;-6.20;99.90
21861;DHT22;11095;48.066;8.540;2023-01-19T07:48:19;-5.90;99.90
21861;DHT22;11095;48.066;8.540;2023-01-19T07:50:45;-5.50;99.90
21861;DHT22;11095;48.066;8.540;2023-01-19T07:53:10;-4.80;99.90
21861;DHT22;11095;48.066;8.540;2023-01-19T07:55:36;-4.00;99.90
21861;DHT22;11095;48.066;8.540;2023-01-19T07:58:02;-3.00;99.90
21861;DHT22;11095;48.066;8.540;2023-01-19T08:00:35;-2.10;99.90
21861;DHT22;11095;48.066;8.540;2023-01-19T08:03:01;-1.30;99.90
21861;DHT22;11095;48.066;8.540;2023-01-19T08:05:27;-0.90;99.90
21861;DHT22;11095;48.066;8.540;2023-01-19T08:07:54;-0.30;99.90
21861;DHT22;11095;48.066;8.540;2023-01-19T08:10:22;0.50;99.90
21861;DHT22;11095;48.066;8.540;2023-01-19T08:12:54;1.50;99.90
21861;DHT22;11095;48.066;8.540;2023-01-19T08:15:21;2.10;99.90
21861;DHT22;11095;48.066;8.540;2023-01-19T08:17:59;2.60;99.90
21861;DHT22;11095;48.066;8.540;2023-01-19T08:20:26;3.10;99.90
21861;DHT22;11095;48.066;8.540;2023-01-19T08:22:52;3.30;99.90
21861;DHT22;11095;48.066;8.540;2023-01-19T08:25:34;3.60;99.90
21861;DHT22;11095;48.066;8.540;2023-01-19T08:28:00;3.30;99.90
21861;DHT22;11095;48.066;8.540;2023-01-19T08:30:26;2.40;99.90
21861;DHT22;11095;48.066;8.540;2023-01-19T08:32:53;2.10;99.90
21861;DHT22;11095;48.066;8.540;2023-01-19T08:35:19;1.90;99.90
21861;DHT22;11095;48.066;8.540;2023-01-19T08:37:46;1.70;99.90
21861;DHT22;11095;48.066;8.540;2023-01-19T08:40:12;1.20;99.90
21861;DHT22;11095;48.066;8.540;2023-01-19T08:42:37;0.30;99.90
21861;DHT22;11095;48.066;8.540;2023-01-19T08:45:03;-0.30;99.90
21861;DHT22;11095;48.066;8.540;2023-01-19T08:47:29;-0.90;99.90
21861;DHT22;11095;48.066;8.540;2023-01-19T08:49:55;-1.30;99.90
21861;DHT22;11095;48.066;8.540;2023-01-19T08:52:20;-1.70;99.90
21861;DHT22;11095;48.066;8.540;2023-01-19T08:54:46;-2.00;99.90
21861;DHT22;11095;48.066;8.540;2023-01-19T08:57:11;-2.30;99.90
21861;DHT22;11095;48.066;8.540;2023-01-19T08:59:37;-2.50;99.90
21861;DHT22;11095;48.066;8.540;2023-01-19T09:02:03;-2.70;99.90
21861;DHT22;11095;48.066;8.540;2023-01-19T09:04:29;-2.80;99.90
21861;DHT22;11095;48.066;8.540;2023-01-19T09:06:54;-2.60;99.90
21861;DHT22;11095;48.066;8.540;2023-01-19T09:09:20;-2.00;99.90
21861;DHT22;11095;48.066;8.540;2023-01-19T09:11:45;-1.60;99.90
21861;DHT22;11095;48.066;8.540;2023-01-19T09:14:11;-1.40;99.90
21861;DHT22;11095;48.066;8.540;2023-01-19T09:16:37;-0.80;99.90
21861;DHT22;11095;48.066;8.540;2023-01-19T09:19:02;-0.70;99.90
21861;DHT22;11095;48.066;8.540;2023-01-19T09:21:28;-0.70;99.90
21861;DHT22;11095;48.066;8.540;2023-01-19T09:23:54;-0.80;99.90
21861;DHT22;11095;48.066;8.540;2023-01-19T09:26:20;-0.80;99.90
21861;DHT22;11095;48.066;8.540;2023-01-19T09:28:46;0.20;99.90
21861;DHT22;11095;48.066;8.540;2023-01-19T09:31:12;0.90;99.90
21861;DHT22;11095;48.066;8.540;2023-01-19T09:33:39;1.10;99.90
21861;DHT22;11095;48.066;8.540;2023-01-19T09:36:05;0.70;99.90
21861;DHT22;11095;48.066;8.540;2023-01-19T09:38:31;0.50;99.90
21861;DHT22;11095;48.066;8.540;2023-01-19T09:40:57;0.30;99.90
21861;DHT22;11095;48.066;8.540;2023-01-19T09:46:14;1.80;99.90
21861;DHT22;11095;48.066;8.540;2023-01-19T09:48:50;3.20;99.90
21861;DHT22;11095;48.066;8.540;2023-01-19T09:51:25;4.20;99.90
21861;DHT22;11095;48.066;8.540;2023-01-19T09:56:42;5.90;99.90
21861;DHT22;11095;48.066;8.540;2023-01-19T09:59:22;6.70;99.90
21861;DHT22;11095;48.066;8.540;2023-01-19T10:04:30;7.50;99.90
21861;DHT22;11095;48.066;8.540;2023-01-19T10:07:05;7.70;99.90
21861;DHT22;11095;48.066;8.540;2023-01-19T10:12:47;6.70;99.90
21861;DHT22;11095;48.066;8.540;2023-01-19T10:21:13;3.80;99.90
21861;DHT22;11095;48.066;8.540;2023-01-19T10:23:52;3.10;99.90
21861;DHT22;11095;48.066;8.540;2023-01-19T10:26:32;2.70;99.90
21861;DHT22;11095;48.066;8.540;2023-01-19T10:31:45;3.30;99.90
21861;DHT22;11095;48.066;8.540;2023-01-19T10:34:11;3.80;99.90
21861;DHT22;11095;48.066;8.540;2023-01-19T10:36:43;4.90;99.90
21861;DHT22;11095;48.066;8.540;2023-01-19T10:39:15;5.70;99.90
21861;DHT22;11095;48.066;8.540;2023-01-19T10:41:52;5.60;99.90
21861;DHT22;11095;48.066;8.540;2023-01-19T10:44:26;5.50;99.90
21861;DHT22;11095;48.066;8.540;2023-01-19T10:46:53;5.40;99.90
21861;DHT22;11095;48.066;8.540;2023-01-19T10:49:29;6.50;99.90
21861;DHT22;11095;48.066;8.540;2023-01-19T10:51:57;6.80;99.90
21861;DHT22;11095;48.066;8.540;2023-01-19T10:54:30;6.10;99.90
21861;DHT22;11095;48.066;8.540;2023-01-19T10:57:04;5.60;99.90
21861;DHT22;11095;48.066;8.540;2023-01-19T10:59:52;4.90;99.90
21861;DHT22;11095;48.066;8.540;2023-01-19T11:02:27;4.60;99.90
21861;DHT22;11095;48.066;8.540;2023-01-19T11:07:42;3.50;99.90
21861;DHT22;11095;48.066;8.540;2023-01-19T11:12:41;3.20;99.90
21861;DHT22;11095;48.066;8.540;2023-01-19T11:15:19;3.00;99.90
21861;DHT22;11095;48.066;8.540;2023-01-19T11:17:46;3.00;99.90
21861;DHT22;11095;48.066;8.540;2023-01-19T11:20:22;3.00;99.90
21861;DHT22;11095;48.066;8.540;2023-01-19T11:23:03;2.90;99.90
21861;DHT22;11095;48.066;8.540;2023-01-19T11:25:31;2.80;99.90
21861;DHT22;11095;48.066;8.540;2023-01-19T11:27:58;2.80;99.90
21861;DHT22;11095;48.066;8.540;2023-01-19T11:30:25;2.80;99.90
21861;DHT22;11095;48.066;8.540;2023-01-19T11:32:52;2.70;99.90
21861;DHT22;11095;48.066;8.540;2023-01-19T11:35:37;2.50;99.90
21861;DHT22;11095;48.066;8.540;2023-01-19T11:40:37;2.20;99.90
21861;DHT22;11095;48.066;8.540;2023-01-19T11:43:03;2.00;99.90
21861;DHT22;11095;48.066;8.540;2023-01-19T11:45:31;1.90;99.90
21861;DHT22;11095;48.066;8.540;2023-01-19T11:47:58;1.70;99.90
21861;DHT22;11095;48.066;8.540;2023-01-19T11:53:24;1.40;99.90
21861;DHT22;11095;48.066;8.540;2023-01-19T11:56:13;1.30;99.90
21861;DHT22;11095;48.066;8.540;2023-01-19T11:58:43;1.20;99.90
21861;DHT22;11095;48.066;8.540;2023-01-19T12:01:30;1.30;99.90
21861;DHT22;11095;48.066;8.540;2023-01-19T12:04:09;1.40;99.90
21861;DHT22;11095;48.066;8.540;2023-01-19T12:06:39;1.40;99.90
21861;DHT22;11095;48.066;8.540;2023-01-19T12:11:40;1.50;99.90
21861;DHT22;11095;48.066;8.540;2023-01-19T12:14:16;1.50;99.90
21861;DHT22;11095;48.066;8.540;2023-01-19T12:16:44;1.50;99.90
21861;DHT22;11095;48.066;8.540;2023-01-19T12:19:28;1.40;99.90
21861;DHT22;11095;48.066;8.540;2023-01-19T12:21:57;1.40;99.90
21861;DHT22;11095;48.066;8.540;2023-01-19T12:24:36;1.20;99.90
21861;DHT22;11095;48.066;8.540;2023-01-19T12:27:17;1.20;99.90
21861;DHT22;11095;48.066;8.540;2023-01-19T12:29:47;1.10;99.90
21861;DHT22;11095;48.066;8.540;2023-01-19T12:34:45;1.00;99.90
21861;DHT22;11095;48.066;8.540;2023-01-19T12:39:57;0.90;99.90
21861;DHT22;11095;48.066;8.540;2023-01-19T12:42:23;0.90;99.90
21861;DHT22;11095;48.066;8.540;2023-01-19T12:45:06;0.90;99.90
21861;DHT22;11095;48.066;8.540;2023-01-19T12:47:32;0.90;99.90
21861;DHT22;11095;48.066;8.540;2023-01-19T12:50:04;0.80;99.90
21861;DHT22;11095;48.066;8.540;2023-01-19T12:52:51;0.70;99.90
21861;DHT22;11095;48.066;8.540;2023-01-19T12:55:26;0.80;99.90
21861;DHT22;11095;48.066;8.540;2023-01-19T12:58:06;0.80;99.90
21861;DHT22;11095;48.066;8.540;2023-01-19T13:00:36;0.80;99.90
21861;DHT22;11095;48.066;8.540;2023-01-19T13:04:28;0.70;99.90
21861;DHT22;11095;48.066;8.540;2023-01-19T13:09:32;0.50;99.90
21861;DHT22;11095;48.066;8.540;2023-01-19T13:14:42;0.40;99.90
21861;DHT22;11095;48.066;8.540;2023-01-19T13:17:21;0.30;99.90
21861;DHT22;11095;48.066;8.540;2023-01-19T13:19:52;0.20;99.90
21861;DHT22;11095;48.066;8.540;2023-01-19T13:25:34;0.00;99.90
21861;DHT22;11095;48.066;8.540;2023-01-19T13:28:00;0.00;99.90
21861;DHT22;11095;48.066;8.540;2023-01-19T13:30:28;0.00;99.90
21861;DHT22;11095;48.066;8.540;2023-01-19T13:33:05;-0.10;99.90
21861;DHT22;11095;48.066;8.540;2023-01-19T13:35:33;-0.10;99.90
21861;DHT22;11095;48.066;8.540;2023-01-19T13:37:59;-0.10;99.90
21861;DHT22;11095;48.066;8.540;2023-01-19T13:40:35;-0.10;99.90
21861;DHT22;11095;48.066;8.540;2023-01-19T13:43:02;-0.20;99.90
21861;DHT22;11095;48.066;8.540;2023-01-19T13:45:36;-0.30;99.90
21861;DHT22;11095;48.066;8.540;2023-01-19T13:48:05;-0.30;99.90
21861;DHT22;11095;48.066;8.540;2023-01-19T13:50:34;-0.40;99.90
21861;DHT22;11095;48.066;8.540;2023-01-19T13:53:00;-0.40;99.90
21861;DHT22;11095;48.066;8.540;2023-01-19T13:55:28;-0.40;99.90
21861;DHT22;11095;48.066;8.540;2023-01-19T13:57:55;-0.30;99.90
21861;DHT22;11095;48.066;8.540;2023-01-19T14:00:26;-0.30;99.90
21861;DHT22;11095;48.066;8.540;2023-01-19T14:03:12;-0.30;99.90
21861;DHT22;11095;48.066;8.540;2023-01-19T14:05:42;-0.30;99.90
21861;DHT22;11095;48.066;8.540;2023-01-19T14:10:38;-0.30;99.90
21861;DHT22;11095;48.066;8.540;2023-01-19T14:13:24;-0.30;99.90
21861;DHT22;11095;48.066;8.540;2023-01-19T14:15:56;-0.30;99.90
21861;DHT22;11095;48.066;8.540;2023-01-19T14:18:30;-0.20;99.90
21861;DHT22;11095;48.066;8.540;2023-01-19T14:31:45;-0.50;99.90
21861;DHT22;11095;48.066;8.540;2023-01-19T14:34:44;-0.50;99.90
21861;DHT22;11095;48.066;8.540;2023-01-19T14:37:21;-0.60;99.90
21861;DHT22;11095;48.066;8.540;2023-01-19T14:42:29;-0.60;99.90
21861;DHT22;11095;48.066;8.540;2023-01-19T14:44:59;-0.70;99.90
21861;DHT22;11095;48.066;8.540;2023-01-19T14:49:59;-0.70;99.90
21861;DHT22;11095;48.066;8.540;2023-01-19T14:52:38;-0.80;99.90
21861;DHT22;11095;48.066;8.540;2023-01-19T14:55:06;-0.80;99.90
21861;DHT22;11095;48.066;8.540;2023-01-19T14:57:33;-0.80;99.90
21861;DHT22;11095;48.066;8.540;2023-01-19T15:00:05;-0.80;99.90
21861;DHT22;11095;48.066;8.540;2023-01-19T15:02:34;-0.80;99.90
21861;DHT22;11095;48.066;8.540;2023-01-19T15:05:00;-0.90;99.90
21861;DHT22;11095;48.066;8.540;2023-01-19T15:07:25;-0.90;99.90
21861;DHT22;11095;48.066;8.540;2023-01-19T15:09:52;-0.90;99.90
21861;DHT22;11095;48.066;8.540;2023-01-19T15:12:18;-0.90;99.90
21861;DHT22;11095;48.066;8.540;2023-01-19T15:14:45;-0.90;99.90
21861;DHT22;11095;48.066;8.540;2023-01-19T15:17:16;-1.00;99.90
21861;DHT22;11095;48.066;8.540;2023-01-19T15:19:42;-0.90;99.90
21861;DHT22;11095;48.066;8.540;2023-01-19T15:22:13;-1.00;99.90
21861;DHT22;11095;48.066;8.540;2023-01-19T15:24:39;-1.00;99.90
21861;DHT22;11095;48.066;8.540;2023-01-19T15:27:09;-1.00;99.90
21861;DHT22;11095;48.066;8.540;2023-01-19T15:29:34;-1.00;99.90
21861;DHT22;11095;48.066;8.540;2023-01-19T15:32:00;-1.00;99.90
21861;DHT22;11095;48.066;8.540;2023-01-19T15:34:26;-1.00;99.90
21861;DHT22;11095;48.066;8.540;2023-01-19T15:36:52;-1.00;99.90
21861;DHT22;11095;48.066;8.540;2023-01-19T15:39:17;-1.10;99.90
21861;DHT22;11095;48.066;8.540;2023-01-19T15:41:43;-1.10;99.90
21861;DHT22;11095;48.066;8.540;2023-01-19T15:44:09;-1.10;99.90
21861;DHT22;11095;48.066;8.540;2023-01-19T15:46:35;-1.10;99.90
21861;DHT22;11095;48.066;8.540;2023-01-19T15:49:01;-1.10;99.90
21861;DHT22;11095;48.066;8.540;2023-01-19T15:51:28;-1.10;99.90
21861;DHT22;11095;48.066;8.540;2023-01-19T15:53:54;-1.20;99.90
21861;DHT22;11095;48.066;8.540;2023-01-19T15:56:27;-1.20;99.90
21861;DHT22;11095;48.066;8.540;2023-01-19T15:58:53;-1.20;99.90
21861;DHT22;11095;48.066;8.540;2023-01-19T16:01:21;-1.20;99.90
21861;DHT22;11095;48.066;8.540;2023-01-19T16:03:48;-1.30;99.90
21861;DHT22;11095;48.066;8.540;2023-01-19T16:06:15;-1.30;99.90
21861;DHT22;11095;48.066;8.540;2023-01-19T16:08:42;-1.30;99.90
21861;DHT22;11095;48.066;8.540;2023-01-19T16:11:10;-1.40;99.90
21861;DHT22;11095;48.066;8.540;2023-01-19T16:13:37;-1.40;99.90
21861;DHT22;11095;48.066;8.540;2023-01-19T16:16:06;-1.40;99.90
21861;DHT22;11095;48.066;8.540;2023-01-19T16:18:32;-1.40;99.90
21861;DHT22;11095;48.066;8.540;2023-01-19T16:20:59;-1.40;99.90
21861;DHT22;11095;48.066;8.540;2023-01-19T16:23:24;-1.40;99.90
21861;DHT22;11095;48.066;8.540;2023-01-19T16:25:58;-1.50;99.90
21861;DHT22;11095;48.066;8.540;2023-01-19T16:28:25;-1.50;99.90
21861;DHT22;11095;48.066;8.540;2023-01-19T16:30:51;-1.50;99.90
21861;DHT22;11095;48.066;8.540;2023-01-19T16:33:17;-1.60;99.90
21861;DHT22;11095;48.066;8.540;2023-01-19T16:35:43;-1.60;99.90
21861;DHT22;11095;48.066;8.540;2023-01-19T16:38:09;-1.60;99.90
21861;DHT22;11095;48.066;8.540;2023-01-19T16:40:35;-1.70;99.90
21861;DHT22;11095;48.066;8.540;2023-01-19T16:43:01;-1.70;99.90
21861;DHT22;11095;48.066;8.540;2023-01-19T16:45:27;-1.70;99.90
21861;DHT22;11095;48.066;8.540;2023-01-19T16:47:53;-1.80;99.90
21861;DHT22;11095;48.066;8.540;2023-01-19T16:50:19;-1.80;99.90
21861;DHT22;11095;48.066;8.540;2023-01-19T16:52:44;-1.80;99.90
21861;DHT22;11095;48.066;8.540;2023-01-19T16:55:10;-1.80;99.90
21861;DHT22;11095;48.066;8.540;2023-01-19T16:57:37;-1.80;99.90
21861;DHT22;11095;48.066;8.540;2023-01-19T17:00:07;-1.80;99.90
21861;DHT22;11095;48.066;8.540;2023-01-19T17:02:34;-1.80;99.90
21861;DHT22;11095;48.066;8.540;2023-01-19T17:05:00;-1.80;99.90
21861;DHT22;11095;48.066;8.540;2023-01-19T17:07:28;-1.90;99.90